Time;durP1;ratioP1;P1;durP2;ratioP2;P2;SDS_P1;SDS_P2;PMS_P1;PMS_P2;Temp;Humidity;BMP_temperature;BMP_pressure;BME280_temperature;BME280_humidity;BME280_pressure;Samples;Min_cycle;Max_cycle;Signal;HPM_P1;HPM_P2
2023/02/22 00:00:42;;;;;;;8.63;6.88;;;22.10;40.10;;;;;;5056918;28;20101;-55
2023/02/22 00:03:17;;;;;;;8.57;6.97;;;22.10;40.10;;;;;;5059993;28;20105;-55
2023/02/22 00:05:52;;;;;;;8.10;7.20;;;22.00;40.10;;;;;;5064201;28;20044;-54
2023/02/22 00:08:22;;;;;;;8.27;6.82;;;22.00;40.00;;;;;;5057885;28;20471;-53
2023/02/22 00:10:51;;;;;;;7.75;6.95;;;22.00;40.00;;;;;;5058908;28;20098;-54
2023/02/22 00:13:18;;;;;;;8.07;6.82;;;22.00;40.00;;;;;;5059024;28;20029;-52
2023/02/22 00:15:44;;;;;;;6.75;6.05;;;22.00;39.90;;;;;;5047035;28;20483;-54
2023/02/22 00:18:16;;;;;;;7.78;6.55;;;22.00;39.90;;;;;;5060146;28;20040;-52
2023/02/22 00:20:42;;;;;;;7.18;6.38;;;22.00;39.80;;;;;;5061591;28;20027;-52
2023/02/22 00:23:15;;;;;;;7.88;6.22;;;22.00;39.80;;;;;;5060743;28;20083;-54
2023/02/22 00:25:41;;;;;;;8.10;6.10;;;22.00;39.90;;;;;;5063482;28;20091;-52
2023/02/22 00:28:07;;;;;;;8.60;6.85;;;22.00;39.80;;;;;;5061756;28;20028;-54
2023/02/22 00:30:33;;;;;;;7.65;6.80;;;21.90;39.80;;;;;;5047455;28;20056;-55
2023/02/22 00:32:59;;;;;;;6.72;6.03;;;22.00;39.80;;;;;;5062959;28;20064;-48
2023/02/22 00:35:28;;;;;;;6.47;5.82;;;21.90;39.80;;;;;;5047334;28;20421;-54
2023/02/22 00:37:57;;;;;;;7.70;6.80;;;21.90;39.80;;;;;;5058371;28;20029;-53
2023/02/22 00:40:27;;;;;;;7.55;6.53;;;21.90;39.70;;;;;;5059076;28;20028;-54
2023/02/22 00:42:53;;;;;;;8.43;6.80;;;21.90;39.70;;;;;;5044181;28;20075;-53
2023/02/22 00:45:22;;;;;;;6.70;5.97;;;21.90;39.70;;;;;;5057048;28;20519;-53
2023/02/22 00:47:49;;;;;;;8.55;6.85;;;21.90;39.70;;;;;;5062693;28;20020;-50
2023/02/22 00:50:16;;;;;;;7.88;6.50;;;21.90;39.60;;;;;;5062433;28;20036;-52
2023/02/22 00:52:42;;;;;;;7.75;6.28;;;21.90;39.30;;;;;;5040940;28;20353;-53
2023/02/22 00:55:13;;;;;;;7.55;6.38;;;21.90;39.60;;;;;;5044802;28;20306;-54
2023/02/22 00:57:40;;;;;;;8.15;6.53;;;21.90;39.60;;;;;;5058707;28;20040;-54
2023/02/22 01:00:11;;;;;;;7.53;6.25;;;21.90;39.60;;;;;;5041740;28;20456;-52
2023/02/22 01:02:39;;;;;;;7.53;6.07;;;21.90;39.60;;;;;;5040282;28;20029;-53
2023/02/22 01:05:08;;;;;;;8.15;6.18;;;21.90;39.60;;;;;;5044772;28;20348;-51
2023/02/22 01:07:34;;;;;;;6.72;6.03;;;21.90;39.50;;;;;;5041584;28;20057;-54
2023/02/22 01:10:04;;;;;;;7.20;6.25;;;21.80;39.50;;;;;;5037776;28;20021;-55
2023/02/22 01:12:30;;;;;;;7.63;6.30;;;21.80;39.40;;;;;;5045542;28;20086;-54
2023/02/22 01:14:57;;;;;;;6.40;5.80;;;21.80;39.40;;;;;;5056006;28;20123;-57
2023/02/22 01:17:24;;;;;;;6.97;6.03;;;21.80;39.50;;;;;;5059556;28;20141;-53
2023/02/22 01:19:51;;;;;;;7.32;5.75;;;21.80;39.40;;;;;;5040445;28;20021;-52
2023/02/22 01:22:18;;;;;;;6.72;6.03;;;21.80;39.30;;;;;;5043996;28;20024;-51
2023/02/22 01:24:44;;;;;;;6.80;6.10;;;21.80;39.30;;;;;;5039917;28;20116;-53
2023/02/22 01:27:11;;;;;;;7.13;5.85;;;21.80;39.30;;;;;;5060134;28;20107;-53
2023/02/22 01:29:38;;;;;;;6.10;5.50;;;21.80;39.30;;;;;;5044847;28;20024;-53
2023/02/22 01:32:05;;;;;;;6.40;5.30;;;21.80;39.40;;;;;;5060533;28;20036;-52
2023/02/22 01:34:32;;;;;;;6.55;5.85;;;21.80;39.40;;;;;;5059675;28;20120;-55
2023/02/22 01:37:00;;;;;;;5.50;4.93;;;21.70;39.30;;;;;;5043024;28;20361;-54
2023/02/22 01:39:26;;;;;;;6.25;5.65;;;21.70;39.30;;;;;;5063963;28;20043;-54
2023/02/22 01:41:53;;;;;;;5.70;5.15;;;21.70;39.30;;;;;;5042892;28;20017;-53
2023/02/22 01:44:26;;;;;;;6.47;5.80;;;21.70;39.30;;;;;;5057970;28;20472;-51
2023/02/22 01:46:53;;;;;;;8.03;5.83;;;21.70;39.30;;;;;;5057206;28;20021;-52
2023/02/22 01:49:20;;;;;;;6.20;5.53;;;21.70;39.30;;;;;;5061598;28;20742;-50
2023/02/22 01:51:52;;;;;;;7.85;5.82;;;21.70;39.30;;;;;;5039595;28;20032;-53
2023/02/22 01:54:33;;;;;;;6.88;5.57;;;21.70;39.30;;;;;;5061524;28;20414;-48
2023/02/22 01:57:30;;;;;;;5.80;5.18;;;21.70;39.30;;;;;;5042543;28;20047;-50
2023/02/22 02:00:00;;;;;;;6.63;5.70;;;21.70;39.20;;;;;;5037963;28;20036;-51
2023/02/22 02:02:27;;;;;;;6.57;5.68;;;21.70;39.30;;;;;;5040302;28;20025;-50
2023/02/22 02:04:55;;;;;;;6.57;5.93;;;21.70;39.30;;;;;;5040745;28;20044;-48
2023/02/22 02:07:23;;;;;;;6.53;5.47;;;21.70;39.30;;;;;;5060284;28;20036;-53
2023/02/22 02:09:59;;;;;;;7.85;6.30;;;21.70;39.30;;;;;;5041469;28;20089;-48
2023/02/22 02:12:28;;;;;;;6.53;5.93;;;21.70;39.20;;;;;;5043948;28;20463;-51
2023/02/22 02:15:29;;;;;;;6.65;5.72;;;21.60;39.80;;;;;;5044144;28;20360;-51
2023/02/22 02:18:01;;;;;;;6.47;5.57;;;21.60;39.10;;;;;;5058343;28;20044;-54
2023/02/22 02:20:50;;;;;;;6.80;5.65;;;21.60;39.20;;;;;;5062141;28;20086;-51
2023/02/22 02:23:46;;;;;;;7.38;6.50;;;21.60;39.20;;;;;;5060256;28;20124;-53
2023/02/22 02:26:15;;;;;;;6.78;6.05;;;21.60;39.10;;;;;;5056865;28;20359;-51
2023/02/22 02:29:11;;;;;;;7.72;5.70;;;21.60;39.10;;;;;;5041036;28;20056;-55
2023/02/22 02:32:04;;;;;;;6.60;5.90;;;21.60;39.10;;;;;;5044837;28;20036;-53
2023/02/22 02:34:42;;;;;;;6.85;5.82;;;21.60;39.10;;;;;;5041014;28;20033;-52
2023/02/22 02:37:11;;;;;;;7.43;5.82;;;21.60;39.00;;;;;;5043488;28;20042;-51
2023/02/22 02:39:55;;;;;;;7.47;6.38;;;21.60;39.00;;;;;;5040056;28;20044;-51
2023/02/22 02:42:28;;;;;;;7.63;6.03;;;21.50;39.00;;;;;;5057044;28;20348;-52
2023/02/22 02:45:17;;;;;;;6.83;5.77;;;21.50;39.00;;;;;;5058133;28;20357;-49
2023/02/22 02:47:50;;;;;;;7.70;6.30;;;21.50;39.00;;;;;;5057405;28;20360;-54
2023/02/22 02:50:26;;;;;;;9.07;6.97;;;21.50;39.00;;;;;;5041828;28;20020;-51
2023/02/22 02:52:55;;;;;;;8.23;6.85;;;21.50;39.00;;;;;;5058506;28;20029;-54
2023/02/22 02:55:22;;;;;;;8.65;7.00;;;21.50;38.90;;;;;;5059004;28;20037;-54
2023/02/22 02:57:48;;;;;;;7.20;6.15;;;21.50;38.90;;;;;;5058035;28;20041;-51
2023/02/22 03:00:23;;;;;;;8.50;6.15;;;21.50;38.90;;;;;;5040596;28;20021;-52
2023/02/22 03:03:26;;;;;;;6.70;5.88;;;21.50;38.90;;;;;;5039069;28;20043;-52
2023/02/22 03:05:52;;;;;;;7.00;6.03;;;21.50;38.90;;;;;;5062607;28;20036;-52
2023/02/22 03:08:49;;;;;;;8.15;6.75;;;21.50;39.00;;;;;;5037088;28;20040;-53
2023/02/22 03:11:27;;;;;;;8.43;6.55;;;21.50;39.00;;;;;;5059456;28;20020;-52
2023/02/22 03:14:12;;;;;;;6.57;5.82;;;21.50;39.00;;;;;;5026104;28;20025;-53
2023/02/22 03:17:03;;;;;;;7.40;6.20;;;21.50;39.00;;;;;;5041264;28;20045;-50
2023/02/22 03:19:48;;;;;;;8.73;6.45;;;21.50;39.00;;;;;;5041431;28;20032;-52
2023/02/22 03:22:24;;;;;;;8.02;6.60;;;21.40;38.90;;;;;;5040814;28;20032;-53
2023/02/22 03:24:57;;;;;;;7.53;6.53;;;21.40;39.00;;;;;;5060034;28;20032;-52
2023/02/22 03:27:26;;;;;;;6.55;5.68;;;21.40;39.00;;;;;;5039077;28;20032;-55
2023/02/22 03:30:00;;;;;;;7.25;5.80;;;21.40;39.00;;;;;;5042859;28;20336;-55
2023/02/22 03:32:33;;;;;;;6.97;5.53;;;21.40;38.90;;;;;;5040896;28;20028;-53
2023/02/22 03:35:15;;;;;;;6.80;5.70;;;21.40;38.90;;;;;;5041337;28;20053;-54
2023/02/22 03:37:45;;;;;;;6.45;5.72;;;21.40;38.90;;;;;;5039415;28;20067;-54
2023/02/22 03:40:24;;;;;;;7.28;5.95;;;21.40;38.90;;;;;;5035481;28;20032;-55
2023/02/22 03:43:00;;;;;;;6.55;5.45;;;21.40;38.90;;;;;;5042720;28;20056;-54
2023/02/22 03:45:29;;;;;;;7.53;5.90;;;21.40;38.90;;;;;;5039715;28;20021;-53
2023/02/22 03:48:03;;;;;;;6.35;5.43;;;21.30;38.80;;;;;;5040423;28;20036;-53
2023/02/22 03:50:34;;;;;;;6.47;5.78;;;21.40;38.90;;;;;;5042756;28;20029;-53
2023/02/22 03:53:02;;;;;;;7.43;5.70;;;21.30;38.80;;;;;;5039008;28;20032;-52
2023/02/22 03:55:31;;;;;;;6.65;5.80;;;21.30;38.80;;;;;;5043479;28;20032;-48
2023/02/22 03:57:59;;;;;;;7.13;6.05;;;21.30;38.80;;;;;;5040065;28;20029;-51
2023/02/22 04:00:31;;;;;;;6.80;5.65;;;21.30;38.80;;;;;;5040459;28;20033;-51
2023/02/22 04:02:58;;;;;;;6.97;5.82;;;21.30;38.80;;;;;;5057566;28;20175;-51
2023/02/22 04:05:24;;;;;;;7.22;5.70;;;21.30;38.80;;;;;;5059161;28;20029;-50
2023/02/22 04:07:55;;;;;;;6.57;5.85;;;21.30;38.80;;;;;;5036975;28;20145;-51
2023/02/22 04:10:23;;;;;;;7.10;6.07;;;21.30;38.80;;;;;;5042950;28;20138;-50
2023/02/22 04:12:49;;;;;;;6.68;5.88;;;21.30;38.80;;;;;;5037490;28;20025;-53
2023/02/22 04:15:22;;;;;;;7.40;6.35;;;21.30;38.80;;;;;;5041674;28;20028;-53
2023/02/22 04:17:51;;;;;;;7.70;6.43;;;21.30;38.80;;;;;;5036778;28;20049;-53
2023/02/22 04:20:18;;;;;;;7.82;6.15;;;21.30;38.80;;;;;;5036748;28;20104;-52
2023/02/22 04:22:54;;;;;;;7.35;6.40;;;21.30;38.80;;;;;;5038318;28;20032;-53
2023/02/22 04:25:21;;;;;;;7.55;6.28;;;21.20;38.70;;;;;;5036781;28;20021;-52
2023/02/22 04:27:48;;;;;;;8.07;6.65;;;21.20;38.70;;;;;;5035335;28;20092;-50
2023/02/22 04:30:18;;;;;;;7.55;6.13;;;21.20;38.70;;;;;;5034116;28;20036;-53
2023/02/22 04:32:44;;;;;;;6.95;5.97;;;21.20;38.70;;;;;;5031710;28;20095;-48
2023/02/22 04:35:10;;;;;;;7.55;6.25;;;21.30;38.80;;;;;;5040156;28;20025;-53
2023/02/22 04:37:37;;;;;;;7.20;5.68;;;21.20;38.70;;;;;;5048560;28;20043;-53
2023/02/22 04:40:06;;;;;;;7.45;6.30;;;21.20;38.70;;;;;;5039573;28;20025;-53
2023/02/22 04:42:35;;;;;;;7.82;6.47;;;21.20;38.70;;;;;;5040643;28;20364;-53
2023/02/22 04:45:01;;;;;;;7.75;6.35;;;21.20;38.70;;;;;;5035431;28;20022;-53
2023/02/22 04:47:28;;;;;;;7.82;6.30;;;21.20;38.70;;;;;;5038864;28;20153;-53
2023/02/22 04:49:54;;;;;;;7.72;6.30;;;21.20;38.70;;;;;;5036578;28;20116;-52
2023/02/22 04:52:20;;;;;;;7.25;6.00;;;21.20;38.70;;;;;;5046870;28;20033;-47
2023/02/22 04:54:47;;;;;;;8.27;6.10;;;21.20;38.70;;;;;;5043591;28;20095;-53
2023/02/22 04:57:13;;;;;;;8.00;6.63;;;21.20;38.70;;;;;;5039591;28;20063;-52
2023/02/22 04:59:39;;;;;;;6.88;5.93;;;21.20;38.70;;;;;;5038170;28;20456;-54
2023/02/22 05:02:05;;;;;;;7.68;6.18;;;21.20;38.70;;;;;;5041049;28;20021;-53
2023/02/22 05:04:31;;;;;;;7.80;6.32;;;21.20;38.70;;;;;;5037618;28;20040;-53
2023/02/22 05:06:57;;;;;;;8.00;6.60;;;21.20;38.80;;;;;;5041788;28;20710;-52
2023/02/22 05:09:23;;;;;;;7.75;6.45;;;21.20;38.70;;;;;;5035920;28;20044;-53
2023/02/22 05:11:48;;;;;;;9.25;7.05;;;21.20;38.80;;;;;;5041150;28;20053;-50
2023/02/22 05:14:14;;;;;;;7.95;6.97;;;21.20;38.70;;;;;;5038305;28;20031;-51
2023/02/22 05:16:40;;;;;;;6.50;5.80;;;21.10;38.70;;;;;;5044881;28;20470;-50
2023/02/22 05:19:06;;;;;;;9.10;6.97;;;21.10;38.70;;;;;;5059299;28;20029;-52
2023/02/22 05:21:32;;;;;;;8.30;6.90;;;21.10;38.70;;;;;;5056462;28;20095;-51
2023/02/22 05:23:58;;;;;;;8.48;6.72;;;21.10;38.70;;;;;;5057116;28;20021;-50
2023/02/22 05:26:24;;;;;;;8.77;7.00;;;21.10;38.70;;;;;;5061484;28;20067;-49
2023/02/22 05:28:49;;;;;;;7.30;6.28;;;21.10;38.60;;;;;;5043405;28;20075;-52
2023/02/22 05:31:16;;;;;;;9.30;7.63;;;21.10;38.70;;;;;;5057302;28;20104;-52
2023/02/22 05:33:42;;;;;;;10.02;7.88;;;21.10;38.70;;;;;;5057755;28;20087;-49
2023/02/22 05:36:08;;;;;;;9.73;7.63;;;21.10;38.60;;;;;;5056963;28;20033;-50
2023/02/22 05:38:42;;;;;;;9.02;7.50;;;21.10;38.60;;;;;;5063997;28;20079;-53
2023/02/22 05:41:09;;;;;;;8.77;7.50;;;21.10;38.60;;;;;;5057885;28;20029;-50
2023/02/22 05:43:36;;;;;;;9.93;7.88;;;21.10;38.60;;;;;;5060578;28;20170;-51
2023/02/22 05:46:01;;;;;;;10.30;7.97;;;21.10;38.60;;;;;;5061419;28;20024;-52
2023/02/22 05:48:27;;;;;;;10.40;8.45;;;21.10;38.60;;;;;;5060698;28;20491;-53
2023/02/22 05:50:54;;;;;;;10.07;8.20;;;21.10;38.60;;;;;;5059802;28;20040;-51
2023/02/22 05:53:22;;;;;;;11.15;8.93;;;21.00;38.60;;;;;;5060376;28;20032;-52
2023/02/22 05:55:49;;;;;;;9.07;8.00;;;21.10;38.60;;;;;;5060070;28;20101;-52
2023/02/22 05:58:15;;;;;;;11.38;8.95;;;21.00;38.60;;;;;;5059895;28;20338;-53
2023/02/22 06:00:41;;;;;;;9.93;8.27;;;21.00;38.60;;;;;;5059724;28;20083;-51
2023/02/22 06:03:08;;;;;;;11.00;8.60;;;21.00;38.50;;;;;;5044931;28;20044;-54
2023/02/22 06:05:35;;;;;;;10.35;8.38;;;21.00;38.50;;;;;;5059976;28;20104;-52
2023/02/22 06:08:02;;;;;;;10.73;8.85;;;21.00;38.60;;;;;;5042225;28;20040;-51
2023/02/22 06:10:28;;;;;;;11.02;8.27;;;21.00;38.60;;;;;;5061312;28;20028;-53
2023/02/22 06:12:55;;;;;;;10.68;7.82;;;21.00;38.60;;;;;;5058612;28;20021;-49
2023/02/22 06:15:23;;;;;;;10.73;8.32;;;21.00;38.70;;;;;;5058597;28;20027;-53
2023/02/22 06:17:49;;;;;;;9.23;8.15;;;21.00;38.70;;;;;;5056949;28;20130;-50
2023/02/22 06:20:18;;;;;;;9.00;7.60;;;21.00;38.70;;;;;;5060433;28;20029;-53
2023/02/22 06:22:46;;;;;;;9.93;8.00;;;21.00;38.70;;;;;;5059173;28;20039;-52
2023/02/22 06:25:15;;;;;;;9.45;7.68;;;21.00;38.70;;;;;;5057487;28;20017;-50
2023/02/22 06:27:41;;;;;;;10.18;8.23;;;21.00;38.70;;;;;;5041904;28;20064;-50
2023/02/22 06:30:08;;;;;;;9.38;8.18;;;21.00;38.70;;;;;;5058938;28;20448;-50
2023/02/22 06:32:34;;;;;;;8.48;7.40;;;21.00;38.70;;;;;;5062544;28;20051;-50
2023/02/22 06:35:00;;;;;;;9.50;8.15;;;21.00;38.80;;;;;;5059137;28;20437;-52
2023/02/22 06:37:26;;;;;;;9.38;7.88;;;21.00;38.80;;;;;;5055721;28;20373;-51
2023/02/22 06:39:51;;;;;;;9.60;8.60;;;21.00;38.80;;;;;;5057556;28;20035;-53
2023/02/22 06:42:17;;;;;;;9.80;8.07;;;21.00;38.80;;;;;;5055772;28;20112;-53
2023/02/22 06:44:43;;;;;;;8.95;7.95;;;21.00;38.80;;;;;;5064457;28;20047;-54
2023/02/22 06:47:09;;;;;;;9.38;7.80;;;21.00;38.80;;;;;;5057050;28;20079;-54
2023/02/22 06:49:35;;;;;;;8.05;6.88;;;21.00;38.90;;;;;;5057403;28;20054;-54
2023/02/22 06:52:04;;;;;;;7.68;6.68;;;21.00;38.90;;;;;;5057385;28;20429;-54
2023/02/22 06:54:30;;;;;;;8.48;7.47;;;21.00;39.00;;;;;;5056995;28;20067;-53
2023/02/22 06:56:56;;;;;;;8.27;7.00;;;21.00;39.00;;;;;;5062583;28;20060;-50
2023/02/22 06:59:22;;;;;;;9.25;6.85;;;21.00;39.00;;;;;;5057588;28;20364;-49
2023/02/22 07:01:48;;;;;;;8.13;6.72;;;21.00;39.00;;;;;;5042186;28;20029;-50
2023/02/22 07:04:14;;;;;;;9.80;6.93;;;21.00;39.20;;;;;;5059241;28;20031;-52
2023/02/22 07:06:49;;;;;;;7.60;6.40;;;21.00;39.30;;;;;;5057347;28;20025;-52
2023/02/22 07:09:17;;;;;;;9.55;6.45;;;21.00;39.30;;;;;;5060869;28;20356;-49
2023/02/22 07:11:43;;;;;;;7.85;6.05;;;21.00;39.40;;;;;;5063718;28;20025;-53
2023/02/22 07:14:09;;;;;;;9.20;6.53;;;21.00;39.50;;;;;;5062007;28;20107;-54
2023/02/22 07:16:35;;;;;;;8.15;6.88;;;21.00;39.60;;;;;;5052351;28;20049;-50
2023/02/22 07:19:01;;;;;;;8.35;6.97;;;21.00;39.70;;;;;;5056793;28;20501;-53
2023/02/22 07:21:29;;;;;;;9.85;7.25;;;21.00;39.70;;;;;;5061380;28;20085;-50
2023/02/22 07:23:57;;;;;;;8.50;7.10;;;21.00;39.80;;;;;;5061997;28;20025;-51
2023/02/22 07:26:25;;;;;;;10.15;8.35;;;21.10;40.50;;;;;;5046085;28;20175;-51
2023/02/22 07:28:51;;;;;;;9.25;8.00;;;21.10;39.90;;;;;;5059573;28;20028;-51
2023/02/22 07:31:17;;;;;;;10.63;7.97;;;21.10;40.00;;;;;;5060216;28;20024;-52
2023/02/22 07:33:45;;;;;;;15.32;9.23;;;21.10;40.10;;;;;;5060346;28;20077;-53
2023/02/22 07:36:13;;;;;;;15.32;9.65;;;21.10;40.20;;;;;;5046249;28;20041;-52
2023/02/22 07:38:39;;;;;;;16.85;10.35;;;21.20;40.30;;;;;;5057736;28;20093;-54
2023/02/22 07:41:05;;;;;;;15.15;10.77;;;21.20;40.30;;;;;;5060045;28;20082;-48
2023/02/22 07:43:31;;;;;;;13.93;10.90;;;21.20;40.40;;;;;;5063386;28;20040;-53
2023/02/22 07:46:01;;;;;;;13.23;11.02;;;21.20;40.40;;;;;;5043319;28;20025;-53
2023/02/22 07:48:30;;;;;;;15.90;11.68;;;21.20;40.40;;;;;;5056642;28;20111;-54
2023/02/22 07:50:57;;;;;;;16.73;12.05;;;21.20;40.40;;;;;;5058433;28;20052;-53
2023/02/22 07:53:29;;;;;;;20.05;12.57;;;21.30;40.50;;;;;;5065169;28;20021;-53
2023/02/22 07:55:59;;;;;;;15.57;12.02;;;21.30;40.50;;;;;;5063729;28;20029;-53
2023/02/22 07:58:28;;;;;;;16.35;12.98;;;21.30;40.50;;;;;;5054557;28;20029;-52
2023/02/22 08:00:54;;;;;;;15.30;12.55;;;21.30;40.50;;;;;;5059133;28;20031;-54
2023/02/22 08:03:22;;;;;;;17.38;14.32;;;21.40;40.60;;;;;;5039308;28;20115;-50
2023/02/22 08:05:51;;;;;;;17.50;13.98;;;21.40;40.80;;;;;;5056915;28;20024;-49
2023/02/22 08:08:17;;;;;;;17.33;14.45;;;21.40;41.00;;;;;;5059180;28;20108;-53
2023/02/22 08:10:43;;;;;;;18.50;15.30;;;21.40;41.20;;;;;;5067233;28;20123;-53
2023/02/22 08:13:11;;;;;;;16.58;14.25;;;21.50;41.30;;;;;;5064633;28;20033;-51
2023/02/22 08:15:40;;;;;;;18.45;15.38;;;21.50;41.30;;;;;;5061952;28;20031;-48
2023/02/22 08:18:09;;;;;;;18.02;14.35;;;21.50;41.10;;;;;;5060156;28;20067;-47
2023/02/22 08:20:36;;;;;;;16.98;12.60;;;21.50;41.00;;;;;;5063612;28;20033;-47
2023/02/22 08:23:04;;;;;;;15.32;12.57;;;21.50;40.70;;;;;;5063335;28;20222;-51
2023/02/22 08:25:29;;;;;;;12.73;10.80;;;21.50;40.60;;;;;;5064226;28;20479;-46
2023/02/22 08:28:02;;;;;;;13.00;10.85;;;21.50;40.30;;;;;;5065963;28;20891;-51
2023/02/22 08:30:30;;;;;;;13.15;10.57;;;21.60;40.20;;;;;;5066016;28;20025;-48
2023/02/22 08:32:57;;;;;;;13.43;11.52;;;21.60;40.10;;;;;;5065808;28;20025;-52
2023/02/22 08:35:23;;;;;;;14.60;11.35;;;21.60;40.00;;;;;;5066781;28;20035;-53
2023/02/22 08:37:52;;;;;;;13.50;11.18;;;21.60;39.90;;;;;;5065961;28;20036;-53
2023/02/22 08:40:21;;;;;;;13.93;11.63;;;21.60;39.80;;;;;;5066779;28;20031;-52
2023/02/22 08:42:47;;;;;;;14.20;10.80;;;21.60;39.60;;;;;;5066767;28;20380;-52
2023/02/22 08:45:13;;;;;;;13.30;10.68;;;21.60;39.60;;;;;;5067700;28;20028;-52
2023/02/22 08:47:40;;;;;;;14.40;11.50;;;21.60;39.50;;;;;;5064747;28;20040;-46
2023/02/22 08:50:06;;;;;;;14.77;11.70;;;21.70;39.50;;;;;;5066153;28;20507;-52
2023/02/22 08:52:33;;;;;;;13.85;10.73;;;21.70;39.50;;;;;;5067543;28;20471;-49
2023/02/22 08:55:00;;;;;;;14.18;10.90;;;21.70;39.40;;;;;;5049149;28;20437;-52
2023/02/22 08:57:26;;;;;;;15.98;11.93;;;21.70;39.30;;;;;;5063725;28;20095;-52
2023/02/22 08:59:53;;;;;;;14.25;11.05;;;21.70;39.30;;;;;;5070839;28;20100;-51
2023/02/22 09:02:20;;;;;;;14.07;11.52;;;21.70;39.30;;;;;;5066833;28;20113;-52
2023/02/22 09:04:47;;;;;;;15.35;11.88;;;21.70;39.20;;;;;;5064952;28;20437;-52
2023/02/22 09:07:14;;;;;;;13.27;11.40;;;21.70;39.20;;;;;;5046103;28;20031;-51
2023/02/22 09:09:44;;;;;;;16.05;11.90;;;21.70;39.20;;;;;;5063291;28;20026;-52
2023/02/22 09:12:10;;;;;;;14.32;11.70;;;21.70;39.10;;;;;;5064454;28;20040;-51
2023/02/22 09:14:36;;;;;;;15.45;11.85;;;21.70;39.00;;;;;;5065355;28;20440;-53
2023/02/22 09:17:02;;;;;;;14.40;11.90;;;21.70;39.00;;;;;;5064029;28;20080;-52
2023/02/22 09:19:28;;;;;;;14.80;11.82;;;21.70;39.00;;;;;;5065583;28;20024;-51
2023/02/22 09:21:55;;;;;;;14.90;12.07;;;21.70;38.90;;;;;;5065133;28;20033;-49
2023/02/22 09:24:22;;;;;;;15.45;12.30;;;21.70;38.90;;;;;;5065284;28;20141;-51
2023/02/22 09:26:52;;;;;;;14.73;11.77;;;21.70;38.90;;;;;;5047154;28;20471;-49
2023/02/22 09:29:23;;;;;;;14.88;11.93;;;21.80;38.90;;;;;;5065457;28;20514;-53
2023/02/22 09:31:52;;;;;;;14.80;11.88;;;21.80;38.90;;;;;;5065267;28;20431;-51
2023/02/22 09:34:21;;;;;;;13.93;11.48;;;21.80;38.80;;;;;;5065694;28;20366;-54
2023/02/22 09:36:48;;;;;;;13.55;11.20;;;21.80;38.80;;;;;;5064103;28;20040;-51
2023/02/22 09:39:16;;;;;;;16.05;11.77;;;21.80;38.80;;;;;;5063733;28;20052;-52
2023/02/22 09:42:08;;;;;;;15.35;12.02;;;21.80;38.80;;;;;;5064573;28;20056;-53
2023/02/22 09:44:42;;;;;;;15.73;11.52;;;21.80;38.70;;;;;;5064054;28;20106;-53
2023/02/22 09:47:17;;;;;;;15.75;11.93;;;21.80;38.90;;;;;;5066455;28;20024;-52
2023/02/22 09:49:50;;;;;;;15.15;12.00;;;21.80;38.60;;;;;;5062461;28;20455;-54
2023/02/22 09:52:45;;;;;;;15.18;11.57;;;21.80;38.60;;;;;;5061247;28;20025;-53
2023/02/22 09:55:29;;;;;;;;;;;21.90;38.60;;;;;;5034289;28;20068;-51
2023/02/22 09:57:58;;;;;;;16.70;12.30;;;21.90;38.60;;;;;;5066856;28;19931;-52
2023/02/22 10:00:32;;;;;;;15.85;12.30;;;21.90;38.60;;;;;;5068786;28;20029;-48
2023/02/22 10:03:21;;;;;;;;;;;21.90;38.50;;;;;;5064896;28;20036;-50
2023/02/22 10:06:11;;;;;;;16.38;11.93;;;21.90;38.50;;;;;;5063980;28;20256;-51
2023/02/22 10:08:38;;;;;;;16.15;12.02;;;21.90;38.50;;;;;;5048876;28;21313;-51
2023/02/22 10:11:18;;;;;;;15.70;12.20;;;21.90;38.50;;;;;;5058950;28;20029;-52
2023/02/22 10:14:04;;;;;;;16.25;12.50;;;21.90;38.50;;;;;;5059820;28;20029;-49
2023/02/22 10:16:37;;;;;;;16.45;12.00;;;21.90;38.50;;;;;;5066577;28;20071;-53
2023/02/22 10:19:21;;;;;;;18.50;13.23;;;21.90;38.50;;;;;;5066553;28;20082;-49
2023/02/22 10:22:06;;;;;;;18.08;14.70;;;22.00;38.50;;;;;;5058563;28;20021;-53
2023/02/22 10:24:51;;;;;;;21.63;16.88;;;21.90;38.70;;;;;;5058605;28;20101;-51
2023/02/22 10:27:22;;;;;;;;;;;22.00;39.00;;;;;;5061153;28;20329;-57
2023/02/22 10:29:58;;;;;;;22.55;18.77;;;22.00;39.00;;;;;;5065485;28;20003;-49
2023/02/22 10:32:42;;;;;;;21.05;18.33;;;22.00;39.20;;;;;;5064166;28;20052;-53
2023/02/22 10:35:21;;;;;;;22.45;18.55;;;22.00;39.30;;;;;;5063843;28;20025;-50
2023/02/22 10:37:49;;;;;;;21.58;18.50;;;22.00;39.30;;;;;;5061815;28;20405;-47
2023/02/22 10:40:22;;;;;;;22.45;18.67;;;22.00;39.30;;;;;;5064532;28;20021;-47
2023/02/22 10:42:49;;;;;;;21.25;18.13;;;22.00;39.20;;;;;;5046753;28;20040;-53
2023/02/22 10:45:35;;;;;;;19.98;17.77;;;22.00;39.20;;;;;;5063299;28;20075;-53
2023/02/22 10:48:10;;;;;;;20.00;16.90;;;22.10;39.20;;;;;;5063238;28;20100;-51
2023/02/22 10:50:40;;;;;;;20.20;17.35;;;22.00;39.00;;;;;;5063598;28;20041;-49
2023/02/22 10:53:07;;;;;;;20.50;17.25;;;22.00;39.00;;;;;;5065729;28;20037;-48
2023/02/22 10:55:33;;;;;;;19.50;16.63;;;22.00;38.90;;;;;;5061018;28;20448;-52
2023/02/22 10:58:03;;;;;;;19.88;16.80;;;22.00;38.90;;;;;;5065481;28;20399;-51
2023/02/22 11:00:36;;;;;;;19.42;16.30;;;22.10;38.90;;;;;;5064851;28;20102;-53
2023/02/22 11:03:22;;;;;;;18.80;15.85;;;22.00;38.80;;;;;;5060445;28;20117;-52
2023/02/22 11:05:49;;;;;;;18.67;16.17;;;22.10;38.70;;;;;;5062627;28;20028;-53
2023/02/22 11:08:20;;;;;;;18.33;15.77;;;22.10;38.70;;;;;;5062913;28;20067;-51
2023/02/22 11:10:52;;;;;;;18.58;15.27;;;22.10;38.70;;;;;;5063381;28;20112;-54
2023/02/22 11:13:32;;;;;;;18.27;15.30;;;22.10;38.60;;;;;;5063846;28;20116;-54
2023/02/22 11:16:01;;;;;;;20.42;15.50;;;22.10;38.60;;;;;;5062210;28;20025;-53
2023/02/22 11:18:33;;;;;;;18.13;15.32;;;22.10;38.60;;;;;;5064169;28;20051;-52
2023/02/22 11:21:06;;;;;;;17.33;14.70;;;22.10;38.50;;;;;;5064297;28;20380;-54
2023/02/22 11:23:37;;;;;;;19.33;15.20;;;22.10;38.50;;;;;;5063628;28;20047;-53
2023/02/22 11:26:13;;;;;;;18.73;15.00;;;22.20;38.50;;;;;;5058585;28;20104;-52
2023/02/22 11:28:48;;;;;;;20.50;14.35;;;22.10;38.50;;;;;;5055946;28;20025;-51
2023/02/22 11:31:14;;;;;;;19.50;15.45;;;22.10;38.50;;;;;;5059745;28;20028;-51
2023/02/22 11:33:52;;;;;;;19.42;16.15;;;22.10;38.60;;;;;;5059520;28;20033;-52
2023/02/22 11:36:41;;;;;;;20.70;17.17;;;22.10;38.80;;;;;;5054795;28;20036;-55
2023/02/22 11:39:27;;;;;;;19.77;16.50;;;22.10;39.00;;;;;;5055689;28;20487;-57
2023/02/22 11:41:56;;;;;;;23.67;19.10;;;22.10;39.20;;;;;;5063170;28;20038;-53
2023/02/22 11:44:31;;;;;;;20.40;17.13;;;22.10;39.30;;;;;;5064435;28;20035;-55
2023/02/22 11:47:05;;;;;;;22.90;17.75;;;22.20;39.40;;;;;;5057116;28;20108;-58
2023/02/22 11:49:34;;;;;;;22.58;19.08;;;22.20;39.40;;;;;;5060771;28;20047;-56
2023/02/22 11:52:09;;;;;;;23.27;19.30;;;22.30;39.40;;;;;;5059331;28;20119;-57
2023/02/22 11:54:41;;;;;;;22.13;19.73;;;22.40;39.30;;;;;;5061415;28;20074;-57
2023/02/22 11:57:31;;;;;;;22.98;19.40;;;22.50;39.10;;;;;;5056733;28;20076;-57
2023/02/22 12:00:23;;;;;;;21.58;19.08;;;22.60;38.90;;;;;;5057571;28;20029;-57
2023/02/22 12:03:27;;;;;;;21.70;19.27;;;22.60;38.70;;;;;;5067773;28;20474;-56
2023/02/22 12:06:14;;;;;;;22.45;18.35;;;22.70;38.50;;;;;;5053246;28;20121;-57
2023/02/22 12:08:52;;;;;;;21.52;19.00;;;22.80;38.30;;;;;;5054844;28;20033;-56
2023/02/22 12:11:40;;;;;;;21.80;19.35;;;22.80;38.20;;;;;;5063814;28;20108;-58
2023/02/22 12:14:14;;;;;;;22.52;19.23;;;22.90;38.10;;;;;;5063565;28;20074;-56
2023/02/22 12:16:56;;;;;;;21.38;19.08;;;22.90;38.00;;;;;;5052846;28;20044;-55
2023/02/22 12:19:36;;;;;;;22.40;20.00;;;23.00;38.00;;;;;;5053579;28;20041;-55
2023/02/22 12:22:13;;;;;;;20.40;18.23;;;23.00;38.00;;;;;;5054127;28;20041;-56
2023/02/22 12:24:58;;;;;;;21.00;18.67;;;23.00;37.90;;;;;;5037170;28;20029;-56
2023/02/22 12:27:32;;;;;;;19.25;17.27;;;23.00;38.40;;;;;;5054405;28;20051;-56
2023/02/22 12:30:11;;;;;;;19.65;17.60;;;23.10;37.80;;;;;;5054711;28;20161;-55
2023/02/22 12:32:50;;;;;;;20.88;18.13;;;23.00;37.60;;;;;;5061832;28;20040;-57
2023/02/22 12:35:33;;;;;;;19.02;16.92;;;23.10;37.60;;;;;;5061441;28;20036;-56
2023/02/22 12:38:29;;;;;;;19.73;16.83;;;23.10;37.50;;;;;;5057738;28;20044;-55
2023/02/22 12:41:19;;;;;;;20.08;17.00;;;23.10;37.40;;;;;;5060768;28;20124;-56
2023/02/22 12:43:47;;;;;;;18.90;16.90;;;23.10;37.30;;;;;;5061712;28;20047;-57
2023/02/22 12:46:23;;;;;;;19.58;16.80;;;23.20;37.30;;;;;;5061606;28;20041;-56
2023/02/22 12:49:16;;;;;;;19.00;16.30;;;23.10;37.10;;;;;;5062578;28;20387;-58
2023/02/22 12:52:11;;;;;;;18.65;16.48;;;23.20;37.10;;;;;;5058098;28;20037;-57
2023/02/22 12:55:06;;;;;;;18.35;16.25;;;23.20;37.00;;;;;;5062734;28;20029;-56
2023/02/22 12:57:41;;;;;;;;;;;23.20;36.90;;;;;;4974998;28;20054;-54
2023/02/22 13:00:19;;;;;;;17.60;15.50;;;23.20;36.90;;;;;;5061126;28;19931;-57